sensor_id;sensor_type;location;lat;lon;timestamp;pressure;altitude;pressure_sealevel;temperature;humidity
10176;BME280;18221;38.704;0.152;2023-06-14T00:02:09;98273.69;;;22.89;49.77
10176;BME280;18221;38.704;0.152;2023-06-14T00:04:36;98269.00;;;22.96;49.74
10176;BME280;18221;38.704;0.152;2023-06-14T00:07:09;98267.44;;;23.00;49.38
10176;BME280;18221;38.704;0.152;2023-06-14T00:09:40;98263.78;;;23.06;49.31
10176;BME280;18221;38.704;0.152;2023-06-14T00:12:08;98260.00;;;23.07;49.15
10176;BME280;18221;38.704;0.152;2023-06-14T00:14:36;98260.38;;;23.11;49.01
10176;BME280;18221;38.704;0.152;2023-06-14T00:17:05;98262.47;;;23.20;48.83
10176;BME280;18221;38.704;0.152;2023-06-14T00:19:33;98256.25;;;23.08;49.01
10176;BME280;18221;38.704;0.152;2023-06-14T00:22:02;98252.34;;;23.16;49.15
10176;BME280;18221;38.704;0.152;2023-06-14T00:24:31;98252.44;;;23.21;49.23
10176;BME280;18221;38.704;0.152;2023-06-14T00:26:59;98264.69;;;23.23;49.16
10176;BME280;18221;38.704;0.152;2023-06-14T00:29:27;98260.25;;;23.17;48.75
10176;BME280;18221;38.704;0.152;2023-06-14T00:31:55;98265.16;;;23.20;48.20
10176;BME280;18221;38.704;0.152;2023-06-14T00:34:23;98259.38;;;23.28;48.39
10176;BME280;18221;38.704;0.152;2023-06-14T00:36:51;98267.78;;;23.39;48.32
10176;BME280;18221;38.704;0.152;2023-06-14T00:39:19;98255.97;;;23.45;47.71
10176;BME280;18221;38.704;0.152;2023-06-14T00:41:49;98260.34;;;23.46;47.83
10176;BME280;18221;38.704;0.152;2023-06-14T00:44:18;98259.97;;;23.54;48.05
10176;BME280;18221;38.704;0.152;2023-06-14T00:46:46;98258.56;;;23.51;47.96
10176;BME280;18221;38.704;0.152;2023-06-14T00:49:16;98259.34;;;23.52;47.59
10176;BME280;18221;38.704;0.152;2023-06-14T00:51:45;98258.97;;;23.60;47.76
10176;BME280;18221;38.704;0.152;2023-06-14T00:54:13;98269.34;;;23.63;47.73
10176;BME280;18221;38.704;0.152;2023-06-14T00:56:44;98268.31;;;23.52;48.06
10176;BME280;18221;38.704;0.152;2023-06-14T00:59:14;98276.13;;;23.49;48.30
10176;BME280;18221;38.704;0.152;2023-06-14T01:01:42;98282.00;;;23.46;48.35
10176;BME280;18221;38.704;0.152;2023-06-14T01:04:10;98279.97;;;23.53;48.15
10176;BME280;18221;38.704;0.152;2023-06-14T01:06:49;98275.97;;;23.55;48.25
10176;BME280;18221;38.704;0.152;2023-06-14T01:09:37;98278.94;;;23.54;48.01
10176;BME280;18221;38.704;0.152;2023-06-14T01:12:15;98281.66;;;23.54;47.91
10176;BME280;18221;38.704;0.152;2023-06-14T01:14:48;98279.75;;;23.54;47.60
10176;BME280;18221;38.704;0.152;2023-06-14T01:17:18;98278.19;;;23.58;47.83
10176;BME280;18221;38.704;0.152;2023-06-14T01:19:47;98280.56;;;23.55;47.89
10176;BME280;18221;38.704;0.152;2023-06-14T01:22:15;98275.50;;;23.58;47.78
10176;BME280;18221;38.704;0.152;2023-06-14T01:24:45;98288.00;;;23.59;47.84
10176;BME280;18221;38.704;0.152;2023-06-14T01:27:13;98290.81;;;23.53;47.62
10176;BME280;18221;38.704;0.152;2023-06-14T01:29:42;98289.88;;;23.59;47.57
10176;BME280;18221;38.704;0.152;2023-06-14T01:32:12;98288.78;;;23.60;47.40
10176;BME280;18221;38.704;0.152;2023-06-14T01:34:40;98293.16;;;23.61;47.08
10176;BME280;18221;38.704;0.152;2023-06-14T01:37:10;98291.75;;;23.58;47.07
10176;BME280;18221;38.704;0.152;2023-06-14T01:39:40;98288.78;;;23.60;47.15
10176;BME280;18221;38.704;0.152;2023-06-14T01:42:13;98290.94;;;23.58;46.87
10176;BME280;18221;38.704;0.152;2023-06-14T01:44:43;98283.38;;;23.60;46.53
10176;BME280;18221;38.704;0.152;2023-06-14T01:47:13;98299.88;;;23.58;46.60
10176;BME280;18221;38.704;0.152;2023-06-14T01:49:42;98289.13;;;23.75;46.25
10176;BME280;18221;38.704;0.152;2023-06-14T01:52:10;98295.03;;;23.72;46.65
10176;BME280;18221;38.704;0.152;2023-06-14T01:54:37;98280.28;;;23.68;46.84
10176;BME280;18221;38.704;0.152;2023-06-14T01:57:11;98289.50;;;23.67;46.58
10176;BME280;18221;38.704;0.152;2023-06-14T01:59:39;98292.53;;;23.70;46.42
10176;BME280;18221;38.704;0.152;2023-06-14T02:02:07;98292.41;;;23.77;46.55
10176;BME280;18221;38.704;0.152;2023-06-14T02:04:35;98289.31;;;23.85;46.44
10176;BME280;18221;38.704;0.152;2023-06-14T02:07:04;98294.03;;;23.78;46.67
10176;BME280;18221;38.704;0.152;2023-06-14T02:09:32;98292.97;;;23.79;47.02
10176;BME280;18221;38.704;0.152;2023-06-14T02:12:00;98289.44;;;23.78;46.90
10176;BME280;18221;38.704;0.152;2023-06-14T02:14:29;98281.28;;;23.62;46.49
10176;BME280;18221;38.704;0.152;2023-06-14T02:16:57;98284.34;;;23.54;45.95
10176;BME280;18221;38.704;0.152;2023-06-14T02:19:25;98286.78;;;23.67;45.66
10176;BME280;18221;38.704;0.152;2023-06-14T02:21:53;98282.88;;;23.74;45.26
10176;BME280;18221;38.704;0.152;2023-06-14T02:24:21;98283.53;;;23.81;45.01
10176;BME280;18221;38.704;0.152;2023-06-14T02:26:49;98285.44;;;23.81;45.23
10176;BME280;18221;38.704;0.152;2023-06-14T02:29:17;98277.06;;;23.82;45.37
10176;BME280;18221;38.704;0.152;2023-06-14T02:31:47;98265.63;;;23.80;45.18
10176;BME280;18221;38.704;0.152;2023-06-14T02:34:16;98274.97;;;23.73;45.38
10176;BME280;18221;38.704;0.152;2023-06-14T02:36:46;98278.28;;;23.75;45.29
10176;BME280;18221;38.704;0.152;2023-06-14T02:39:14;98270.81;;;23.82;45.04
10176;BME280;18221;38.704;0.152;2023-06-14T02:41:42;98273.28;;;23.83;45.60
10176;BME280;18221;38.704;0.152;2023-06-14T02:44:12;98279.31;;;23.85;45.76
10176;BME280;18221;38.704;0.152;2023-06-14T02:46:41;98278.56;;;23.90;46.04
10176;BME280;18221;38.704;0.152;2023-06-14T02:49:11;98284.38;;;23.82;46.68
10176;BME280;18221;38.704;0.152;2023-06-14T02:51:39;98283.34;;;23.71;47.10
10176;BME280;18221;38.704;0.152;2023-06-14T02:54:07;98287.38;;;23.57;47.70
10176;BME280;18221;38.704;0.152;2023-06-14T02:56:35;98288.59;;;23.50;47.97
10176;BME280;18221;38.704;0.152;2023-06-14T02:59:03;98291.78;;;23.47;48.41
10176;BME280;18221;38.704;0.152;2023-06-14T03:01:31;98293.44;;;23.48;48.84
10176;BME280;18221;38.704;0.152;2023-06-14T03:04:01;98286.34;;;23.47;49.30
10176;BME280;18221;38.704;0.152;2023-06-14T03:06:31;98286.03;;;23.43;49.81
10176;BME280;18221;38.704;0.152;2023-06-14T03:09:00;98285.91;;;23.38;50.20
10176;BME280;18221;38.704;0.152;2023-06-14T03:11:31;98289.47;;;23.39;50.13
10176;BME280;18221;38.704;0.152;2023-06-14T03:13:59;98287.41;;;23.34;49.83
10176;BME280;18221;38.704;0.152;2023-06-14T03:16:30;98277.28;;;23.29;49.54
10176;BME280;18221;38.704;0.152;2023-06-14T03:18:58;98275.69;;;23.17;48.73
10176;BME280;18221;38.704;0.152;2023-06-14T03:21:26;98271.88;;;23.18;47.71
10176;BME280;18221;38.704;0.152;2023-06-14T03:23:56;98271.88;;;23.18;46.58
10176;BME280;18221;38.704;0.152;2023-06-14T03:26:24;98271.66;;;23.19;46.44
10176;BME280;18221;38.704;0.152;2023-06-14T03:28:52;98274.22;;;23.26;45.55
10176;BME280;18221;38.704;0.152;2023-06-14T03:31:20;98276.72;;;23.39;45.67
10176;BME280;18221;38.704;0.152;2023-06-14T03:33:50;98272.38;;;23.38;45.54
10176;BME280;18221;38.704;0.152;2023-06-14T03:36:18;98275.16;;;23.31;45.06
10176;BME280;18221;38.704;0.152;2023-06-14T03:38:46;98273.28;;;23.32;44.56
10176;BME280;18221;38.704;0.152;2023-06-14T03:41:15;98271.63;;;23.31;44.09
10176;BME280;18221;38.704;0.152;2023-06-14T03:43:43;98269.78;;;23.20;43.43
10176;BME280;18221;38.704;0.152;2023-06-14T03:46:11;98272.13;;;23.28;43.11
10176;BME280;18221;38.704;0.152;2023-06-14T03:48:39;98264.34;;;23.31;42.97
10176;BME280;18221;38.704;0.152;2023-06-14T03:51:07;98280.25;;;23.40;42.45
10176;BME280;18221;38.704;0.152;2023-06-14T03:53:35;98275.88;;;23.27;42.20
10176;BME280;18221;38.704;0.152;2023-06-14T03:56:03;98272.34;;;23.26;41.76
10176;BME280;18221;38.704;0.152;2023-06-14T03:58:33;98281.44;;;23.44;41.35
10176;BME280;18221;38.704;0.152;2023-06-14T04:01:01;98275.28;;;23.48;41.09
10176;BME280;18221;38.704;0.152;2023-06-14T04:03:29;98278.81;;;23.49;41.24
10176;BME280;18221;38.704;0.152;2023-06-14T04:05:57;98273.88;;;23.46;41.28
10176;BME280;18221;38.704;0.152;2023-06-14T04:08:25;98273.88;;;23.46;40.65
10176;BME280;18221;38.704;0.152;2023-06-14T04:10:54;98266.47;;;23.41;40.61
10176;BME280;18221;38.704;0.152;2023-06-14T04:13:22;98270.50;;;23.39;40.44
10176;BME280;18221;38.704;0.152;2023-06-14T04:15:51;98276.13;;;23.37;40.09
10176;BME280;18221;38.704;0.152;2023-06-14T04:18:20;98270.09;;;23.47;39.71
10176;BME280;18221;38.704;0.152;2023-06-14T04:20:48;98271.63;;;23.54;39.76
10176;BME280;18221;38.704;0.152;2023-06-14T04:23:17;98267.84;;;23.55;39.65
10176;BME280;18221;38.704;0.152;2023-06-14T04:25:45;98278.47;;;23.57;39.67
10176;BME280;18221;38.704;0.152;2023-06-14T04:28:13;98280.88;;;23.70;39.52
10176;BME280;18221;38.704;0.152;2023-06-14T04:30:42;98290.81;;;23.53;39.44
10176;BME280;18221;38.704;0.152;2023-06-14T04:33:12;98298.50;;;23.44;39.34
10176;BME280;18221;38.704;0.152;2023-06-14T04:35:41;98299.69;;;23.48;39.02
10176;BME280;18221;38.704;0.152;2023-06-14T04:38:09;98303.91;;;23.56;39.04
10176;BME280;18221;38.704;0.152;2023-06-14T04:40:37;98300.44;;;23.72;39.53
10176;BME280;18221;38.704;0.152;2023-06-14T04:43:08;98307.88;;;23.65;39.64
10176;BME280;18221;38.704;0.152;2023-06-14T04:45:38;98316.72;;;23.72;39.35
10176;BME280;18221;38.704;0.152;2023-06-14T04:48:07;98317.41;;;23.67;39.38
10176;BME280;18221;38.704;0.152;2023-06-14T04:50:38;98320.38;;;23.66;39.60
10176;BME280;18221;38.704;0.152;2023-06-14T04:53:07;98320.25;;;23.61;39.80
10176;BME280;18221;38.704;0.152;2023-06-14T04:55:35;98324.53;;;23.57;39.34
10176;BME280;18221;38.704;0.152;2023-06-14T04:58:03;98324.53;;;23.57;39.43
10176;BME280;18221;38.704;0.152;2023-06-14T05:00:32;98325.06;;;23.70;39.01
10176;BME280;18221;38.704;0.152;2023-06-14T05:03:00;98328.84;;;23.69;39.43
10176;BME280;18221;38.704;0.152;2023-06-14T05:05:29;98334.97;;;23.65;39.03
10176;BME280;18221;38.704;0.152;2023-06-14T05:07:58;98342.84;;;23.78;39.35
10176;BME280;18221;38.704;0.152;2023-06-14T05:10:26;98348.81;;;23.91;38.89
10176;BME280;18221;38.704;0.152;2023-06-14T05:12:54;98357.78;;;23.92;40.07
10176;BME280;18221;38.704;0.152;2023-06-14T05:15:22;98364.13;;;23.98;40.12
10176;BME280;18221;38.704;0.152;2023-06-14T05:17:52;98372.91;;;23.88;41.13
10176;BME280;18221;38.704;0.152;2023-06-14T05:20:21;98369.00;;;23.84;40.84
10176;BME280;18221;38.704;0.152;2023-06-14T05:22:52;98370.31;;;23.81;41.18
10176;BME280;18221;38.704;0.152;2023-06-14T05:25:21;98374.69;;;23.71;41.42
10176;BME280;18221;38.704;0.152;2023-06-14T05:27:49;98368.44;;;23.70;41.69
10176;BME280;18221;38.704;0.152;2023-06-14T05:30:17;98379.91;;;23.61;41.86
10176;BME280;18221;38.704;0.152;2023-06-14T05:32:45;98379.41;;;23.64;41.86
10176;BME280;18221;38.704;0.152;2023-06-14T05:35:13;98370.22;;;23.65;41.79
10176;BME280;18221;38.704;0.152;2023-06-14T05:37:42;98384.84;;;23.64;41.70
10176;BME280;18221;38.704;0.152;2023-06-14T05:40:11;98383.91;;;23.58;41.74
10176;BME280;18221;38.704;0.152;2023-06-14T05:42:40;98381.06;;;23.65;41.28
10176;BME280;18221;38.704;0.152;2023-06-14T05:45:09;98379.88;;;23.72;41.28
10176;BME280;18221;38.704;0.152;2023-06-14T05:47:37;98376.34;;;23.72;41.54
10176;BME280;18221;38.704;0.152;2023-06-14T05:50:06;98380.09;;;23.71;41.83
10176;BME280;18221;38.704;0.152;2023-06-14T05:52:34;98378.94;;;23.67;41.29
10176;BME280;18221;38.704;0.152;2023-06-14T05:55:03;98390.84;;;23.66;40.91
10176;BME280;18221;38.704;0.152;2023-06-14T05:57:32;98379.75;;;23.67;41.16
10176;BME280;18221;38.704;0.152;2023-06-14T06:00:01;98389.44;;;23.75;41.23
10176;BME280;18221;38.704;0.152;2023-06-14T06:02:35;98393.75;;;23.76;41.27
10176;BME280;18221;38.704;0.152;2023-06-14T06:05:04;98391.16;;;23.81;41.38
10176;BME280;18221;38.704;0.152;2023-06-14T06:07:32;98388.91;;;23.89;41.65
10176;BME280;18221;38.704;0.152;2023-06-14T06:10:00;98388.91;;;23.89;41.22
10176;BME280;18221;38.704;0.152;2023-06-14T06:12:28;98395.63;;;23.87;40.83
10176;BME280;18221;38.704;0.152;2023-06-14T06:14:56;98395.75;;;23.92;41.00
10176;BME280;18221;38.704;0.152;2023-06-14T06:17:25;98396.47;;;23.87;40.90
10176;BME280;18221;38.704;0.152;2023-06-14T06:19:54;98398.91;;;24.01;40.67
10176;BME280;18221;38.704;0.152;2023-06-14T06:22:22;98401.94;;;24.04;40.01
10176;BME280;18221;38.704;0.152;2023-06-14T06:24:50;98408.59;;;24.08;40.29
10176;BME280;18221;38.704;0.152;2023-06-14T06:27:18;98405.03;;;24.19;40.27
10176;BME280;18221;38.704;0.152;2023-06-14T06:29:46;98412.56;;;24.17;39.51
10176;BME280;18221;38.704;0.152;2023-06-14T06:32:15;98416.53;;;24.26;39.68
10176;BME280;18221;38.704;0.152;2023-06-14T06:34:47;98421.69;;;24.39;39.44
10176;BME280;18221;38.704;0.152;2023-06-14T06:37:14;98417.88;;;24.40;38.83
10176;BME280;18221;38.704;0.152;2023-06-14T06:39:42;98417.84;;;24.52;38.89
10176;BME280;18221;38.704;0.152;2023-06-14T06:42:12;98416.63;;;24.60;38.91
10176;BME280;18221;38.704;0.152;2023-06-14T06:44:40;98412.22;;;24.70;38.83
10176;BME280;18221;38.704;0.152;2023-06-14T06:47:08;98409.75;;;24.69;39.02
10176;BME280;18221;38.704;0.152;2023-06-14T06:49:37;98420.00;;;24.67;38.29
10176;BME280;18221;38.704;0.152;2023-06-14T06:52:09;98421.50;;;24.74;38.78
10176;BME280;18221;38.704;0.152;2023-06-14T06:54:37;98417.63;;;24.82;38.76
10176;BME280;18221;38.704;0.152;2023-06-14T06:57:08;98419.59;;;24.86;38.39
10176;BME280;18221;38.704;0.152;2023-06-14T06:59:40;98420.16;;;24.88;38.24
10176;BME280;18221;38.704;0.152;2023-06-14T07:02:08;98422.78;;;24.83;37.98
10176;BME280;18221;38.704;0.152;2023-06-14T07:04:36;98423.63;;;24.84;37.78
10176;BME280;18221;38.704;0.152;2023-06-14T07:07:04;98428.81;;;24.85;37.92
10176;BME280;18221;38.704;0.152;2023-06-14T07:09:33;98420.44;;;24.87;37.78
10176;BME280;18221;38.704;0.152;2023-06-14T07:12:01;98435.44;;;24.78;37.69
10176;BME280;18221;38.704;0.152;2023-06-14T07:14:29;98428.81;;;24.85;38.00
10176;BME280;18221;38.704;0.152;2023-06-14T07:16:57;98433.66;;;24.83;37.37
10176;BME280;18221;38.704;0.152;2023-06-14T07:19:25;98443.22;;;24.86;37.08
10176;BME280;18221;38.704;0.152;2023-06-14T07:21:53;98439.94;;;25.00;37.33
10176;BME280;18221;38.704;0.152;2023-06-14T07:24:21;98451.38;;;25.02;37.18
10176;BME280;18221;38.704;0.152;2023-06-14T07:26:51;98454.59;;;24.99;37.65
10176;BME280;18221;38.704;0.152;2023-06-14T07:29:19;98458.13;;;25.00;38.09
10176;BME280;18221;38.704;0.152;2023-06-14T07:31:47;98465.19;;;25.01;37.75
10176;BME280;18221;38.704;0.152;2023-06-14T07:34:15;98469.91;;;25.22;37.91
10176;BME280;18221;38.704;0.152;2023-06-14T07:36:43;98467.19;;;25.22;38.12
10176;BME280;18221;38.704;0.152;2023-06-14T07:39:12;98458.97;;;25.17;37.78
10176;BME280;18221;38.704;0.152;2023-06-14T07:41:39;98463.25;;;25.13;36.91
10176;BME280;18221;38.704;0.152;2023-06-14T07:44:09;98463.75;;;25.43;37.55
10176;BME280;18221;38.704;0.152;2023-06-14T07:46:38;98462.00;;;25.37;36.20
10176;BME280;18221;38.704;0.152;2023-06-14T07:49:08;98459.13;;;25.44;36.31
10176;BME280;18221;38.704;0.152;2023-06-14T07:51:36;98470.47;;;25.52;36.58
10176;BME280;18221;38.704;0.152;2023-06-14T07:54:04;98478.34;;;25.70;36.24
10176;BME280;18221;38.704;0.152;2023-06-14T07:56:34;98481.34;;;25.91;36.57
10176;BME280;18221;38.704;0.152;2023-06-14T07:59:02;98486.66;;;26.19;35.62
10176;BME280;18221;38.704;0.152;2023-06-14T08:01:31;98493.47;;;26.86;35.34
10176;BME280;18221;38.704;0.152;2023-06-14T08:03:59;98495.50;;;27.28;33.92
10176;BME280;18221;38.704;0.152;2023-06-14T08:06:27;98500.44;;;27.99;32.55
10176;BME280;18221;38.704;0.152;2023-06-14T08:08:55;98499.28;;;28.37;31.65
10176;BME280;18221;38.704;0.152;2023-06-14T08:11:23;98512.13;;;28.99;30.84
10176;BME280;18221;38.704;0.152;2023-06-14T08:13:51;98502.63;;;29.42;30.49
10176;BME280;18221;38.704;0.152;2023-06-14T08:16:19;98507.78;;;30.04;29.46
10176;BME280;18221;38.704;0.152;2023-06-14T08:18:49;98512.38;;;30.38;28.74
10176;BME280;18221;38.704;0.152;2023-06-14T08:21:17;98514.41;;;30.72;27.73
10176;BME280;18221;38.704;0.152;2023-06-14T08:23:45;98520.28;;;31.09;27.96
10176;BME280;18221;38.704;0.152;2023-06-14T08:26:14;98522.22;;;31.47;26.72
10176;BME280;18221;38.704;0.152;2023-06-14T08:28:42;98522.88;;;30.80;27.58
10176;BME280;18221;38.704;0.152;2023-06-14T08:31:10;98522.00;;;30.95;27.21
10176;BME280;18221;38.704;0.152;2023-06-14T08:33:39;98521.03;;;31.58;26.43
10176;BME280;18221;38.704;0.152;2023-06-14T08:36:10;98530.13;;;31.88;26.16
10176;BME280;18221;38.704;0.152;2023-06-14T08:38:39;98525.75;;;32.39;25.34
10176;BME280;18221;38.704;0.152;2023-06-14T08:41:08;98524.59;;;32.21;24.92
10176;BME280;18221;38.704;0.152;2023-06-14T08:43:40;98531.09;;;31.97;25.81
10176;BME280;18221;38.704;0.152;2023-06-14T08:46:08;98524.09;;;31.86;25.59
10176;BME280;18221;38.704;0.152;2023-06-14T08:48:39;98530.63;;;31.90;26.03
10176;BME280;18221;38.704;0.152;2023-06-14T08:51:11;98534.25;;;31.85;25.97
10176;BME280;18221;38.704;0.152;2023-06-14T08:53:43;98542.13;;;32.49;25.20
10176;BME280;18221;38.704;0.152;2023-06-14T08:56:12;98532.91;;;33.25;24.55
10176;BME280;18221;38.704;0.152;2023-06-14T08:58:44;98546.66;;;33.06;24.31
10176;BME280;18221;38.704;0.152;2023-06-14T09:01:14;98555.91;;;33.15;24.22
10176;BME280;18221;38.704;0.152;2023-06-14T09:03:44;98544.50;;;33.03;23.92
10176;BME280;18221;38.704;0.152;2023-06-14T09:06:16;98536.09;;;32.47;25.28
10176;BME280;18221;38.704;0.152;2023-06-14T09:08:46;98550.50;;;32.10;25.60
10176;BME280;18221;38.704;0.152;2023-06-14T09:11:17;98545.63;;;30.81;27.45
10176;BME280;18221;38.704;0.152;2023-06-14T09:13:46;98555.09;;;30.34;28.54
10176;BME280;18221;38.704;0.152;2023-06-14T09:16:15;98552.94;;;30.16;29.24
10176;BME280;18221;38.704;0.152;2023-06-14T09:18:45;98557.91;;;29.94;30.03
10176;BME280;18221;38.704;0.152;2023-06-14T09:21:17;98553.28;;;29.79;30.50
10176;BME280;18221;38.704;0.152;2023-06-14T09:23:47;98566.09;;;29.54;30.74
10176;BME280;18221;38.704;0.152;2023-06-14T09:26:17;98563.31;;;29.28;30.91
10176;BME280;18221;38.704;0.152;2023-06-14T09:28:47;98564.03;;;28.94;31.90
10176;BME280;18221;38.704;0.152;2023-06-14T09:31:20;98567.03;;;28.92;31.59
10176;BME280;18221;38.704;0.152;2023-06-14T09:33:50;98569.28;;;29.15;31.53
10176;BME280;18221;38.704;0.152;2023-06-14T09:36:23;98573.13;;;29.19;30.87
10176;BME280;18221;38.704;0.152;2023-06-14T09:38:56;98574.19;;;29.03;31.64
10176;BME280;18221;38.704;0.152;2023-06-14T09:41:31;98570.91;;;29.01;32.17
10176;BME280;18221;38.704;0.152;2023-06-14T09:44:01;98578.09;;;29.22;30.79
10176;BME280;18221;38.704;0.152;2023-06-14T09:46:30;98574.22;;;29.18;31.15
10176;BME280;18221;38.704;0.152;2023-06-14T09:48:59;98575.28;;;29.12;31.56
10176;BME280;18221;38.704;0.152;2023-06-14T09:51:30;98586.09;;;28.72;31.72
10176;BME280;18221;38.704;0.152;2023-06-14T09:54:00;98590.09;;;29.21;31.34
10176;BME280;18221;38.704;0.152;2023-06-14T09:56:36;98593.69;;;29.27;31.58
10176;BME280;18221;38.704;0.152;2023-06-14T09:59:06;98592.63;;;29.63;30.93
10176;BME280;18221;38.704;0.152;2023-06-14T10:01:43;98595.09;;;29.70;29.64
10176;BME280;18221;38.704;0.152;2023-06-14T10:04:13;98604.41;;;29.49;31.15
10176;BME280;18221;38.704;0.152;2023-06-14T10:06:47;98602.22;;;29.51;30.35
10176;BME280;18221;38.704;0.152;2023-06-14T10:09:15;98609.28;;;29.31;31.85
10176;BME280;18221;38.704;0.152;2023-06-14T10:11:46;98607.16;;;29.54;31.42
10176;BME280;18221;38.704;0.152;2023-06-14T10:14:15;98607.47;;;29.87;31.56
10176;BME280;18221;38.704;0.152;2023-06-14T10:16:53;98606.03;;;29.70;31.03
10176;BME280;18221;38.704;0.152;2023-06-14T10:19:29;98600.34;;;29.81;31.12
10176;BME280;18221;38.704;0.152;2023-06-14T10:22:09;98600.84;;;29.68;30.28
10176;BME280;18221;38.704;0.152;2023-06-14T10:24:41;98608.75;;;29.34;30.68
10176;BME280;18221;38.704;0.152;2023-06-14T10:27:13;98602.44;;;29.39;30.22
10176;BME280;18221;38.704;0.152;2023-06-14T10:30:06;98599.47;;;29.66;30.29
10176;BME280;18221;38.704;0.152;2023-06-14T10:32:35;98598.41;;;29.67;30.90
10176;BME280;18221;38.704;0.152;2023-06-14T10:35:23;98590.72;;;30.14;30.53
10176;BME280;18221;38.704;0.152;2023-06-14T10:37:53;98591.56;;;30.00;30.91
10176;BME280;18221;38.704;0.152;2023-06-14T10:40:34;98592.41;;;30.00;31.62
10176;BME280;18221;38.704;0.152;2023-06-14T10:43:21;98589.13;;;30.08;31.52
10176;BME280;18221;38.704;0.152;2023-06-14T10:46:16;98581.44;;;30.15;31.42
10176;BME280;18221;38.704;0.152;2023-06-14T10:48:45;98580.63;;;29.94;30.52
10176;BME280;18221;38.704;0.152;2023-06-14T10:51:17;98590.22;;;29.97;30.77
10176;BME280;18221;38.704;0.152;2023-06-14T10:53:50;98582.25;;;30.11;31.60
10176;BME280;18221;38.704;0.152;2023-06-14T10:56:28;98583.63;;;30.03;30.17
10176;BME280;18221;38.704;0.152;2023-06-14T10:58:57;98592.13;;;30.02;29.78
10176;BME280;18221;38.704;0.152;2023-06-14T11:01:37;98588.53;;;30.06;30.63
10176;BME280;18221;38.704;0.152;2023-06-14T11:04:10;98583.06;;;29.96;31.06
10176;BME280;18221;38.704;0.152;2023-06-14T11:06:47;98594.59;;;29.98;31.45
10176;BME280;18221;38.704;0.152;2023-06-14T11:09:50;98589.09;;;29.88;31.03
10176;BME280;18221;38.704;0.152;2023-06-14T11:12:23;98592.94;;;29.92;31.09
10176;BME280;18221;38.704;0.152;2023-06-14T11:14:52;98587.47;;;30.02;30.37
10176;BME280;18221;38.704;0.152;2023-06-14T11:17:20;98590.22;;;29.97;30.93
10176;BME280;18221;38.704;0.152;2023-06-14T11:19:50;98587.47;;;29.92;30.13
10176;BME280;18221;38.704;0.152;2023-06-14T11:22:17;98579.25;;;29.97;30.18
10176;BME280;18221;38.704;0.152;2023-06-14T11:24:47;98578.69;;;30.05;30.83
10176;BME280;18221;38.704;0.152;2023-06-14T11:27:15;98580.91;;;29.98;29.99
10176;BME280;18221;38.704;0.152;2023-06-14T11:29:48;98588.31;;;29.92;30.05
10176;BME280;18221;38.704;0.152;2023-06-14T11:32:17;98580.06;;;30.13;29.23
10176;BME280;18221;38.704;0.152;2023-06-14T11:34:46;98588.56;;;30.16;28.99
10176;BME280;18221;38.704;0.152;2023-06-14T11:37:17;98584.44;;;30.04;28.81
10176;BME280;18221;38.704;0.152;2023-06-14T11:39:47;98587.75;;;30.06;28.98
10176;BME280;18221;38.704;0.152;2023-06-14T11:42:16;98589.38;;;30.27;29.85
10176;BME280;18221;38.704;0.152;2023-06-14T11:44:46;98590.72;;;30.14;29.29
10176;BME280;18221;38.704;0.152;2023-06-14T11:47:14;98588.78;;;30.25;28.22
10176;BME280;18221;38.704;0.152;2023-06-14T11:49:42;98591.84;;;30.08;28.41
10176;BME280;18221;38.704;0.152;2023-06-14T11:52:11;98583.34;;;30.00;29.02
10176;BME280;18221;38.704;0.152;2023-06-14T11:54:39;98589.63;;;29.75;28.99
10176;BME280;18221;38.704;0.152;2023-06-14T11:57:09;98580.09;;;29.98;28.67
10176;BME280;18221;38.704;0.152;2023-06-14T11:59:39;98579.53;;;30.11;28.04
10176;BME280;18221;38.704;0.152;2023-06-14T12:02:08;98585.81;;;30.21;27.31
10176;BME280;18221;38.704;0.152;2023-06-14T12:04:36;98574.31;;;30.24;28.52
10176;BME280;18221;38.704;0.152;2023-06-14T12:07:10;98581.72;;;30.14;28.45
10176;BME280;18221;38.704;0.152;2023-06-14T12:09:41;98580.03;;;30.28;28.29
10176;BME280;18221;38.704;0.152;2023-06-14T12:12:12;98572.34;;;30.35;27.81
10176;BME280;18221;38.704;0.152;2023-06-14T12:14:42;98576.22;;;30.39;28.00
10176;BME280;18221;38.704;0.152;2023-06-14T12:17:10;98576.97;;;30.54;27.78
10176;BME280;18221;38.704;0.152;2023-06-14T12:19:42;98569.91;;;30.38;27.61
10176;BME280;18221;38.704;0.152;2023-06-14T12:22:10;98579.75;;;30.19;27.66
10176;BME280;18221;38.704;0.152;2023-06-14T12:24:39;98570.44;;;30.35;27.49
10176;BME280;18221;38.704;0.152;2023-06-14T12:27:07;98578.13;;;30.38;27.00
10176;BME280;18221;38.704;0.152;2023-06-14T12:29:39;98573.19;;;30.35;26.89
10176;BME280;18221;38.704;0.152;2023-06-14T12:32:08;98570.41;;;30.61;27.13
10176;BME280;18221;38.704;0.152;2023-06-14T12:34:36;98573.31;;;30.84;27.16
10176;BME280;18221;38.704;0.152;2023-06-14T12:37:05;98565.78;;;31.15;27.54
10176;BME280;18221;38.704;0.152;2023-06-14T12:39:33;98571.50;;;31.18;26.48
10176;BME280;18221;38.704;0.152;2023-06-14T12:42:00;98567.44;;;31.11;27.43
10176;BME280;18221;38.704;0.152;2023-06-14T12:44:30;98572.22;;;30.80;26.18
10176;BME280;18221;38.704;0.152;2023-06-14T12:47:01;98574.84;;;31.05;26.58
10176;BME280;18221;38.704;0.152;2023-06-14T12:49:29;98579.16;;;31.22;27.10
10176;BME280;18221;38.704;0.152;2023-06-14T12:51:57;98573.88;;;31.35;27.08
10176;BME280;18221;38.704;0.152;2023-06-14T12:54:25;98571.16;;;31.30;26.30
10176;BME280;18221;38.704;0.152;2023-06-14T12:56:53;98573.66;;;31.65;26.26
10176;BME280;18221;38.704;0.152;2023-06-14T12:59:21;98579.09;;;31.75;26.54
10176;BME280;18221;38.704;0.152;2023-06-14T13:01:49;98578.03;;;31.71;24.84
10176;BME280;18221;38.704;0.152;2023-06-14T13:04:19;98577.66;;;31.83;25.97
10176;BME280;18221;38.704;0.152;2023-06-14T13:06:47;98572.38;;;32.20;24.35
10176;BME280;18221;38.704;0.152;2023-06-14T13:09:15;98573.53;;;32.43;29.13
10176;BME280;18221;38.704;0.152;2023-06-14T13:11:43;98567.69;;;32.50;29.55
10176;BME280;18221;38.704;0.152;2023-06-14T13:14:13;98577.38;;;32.42;29.67